Time;durP1;ratioP1;P1;durP2;ratioP2;P2;SDS_P1;SDS_P2;PMS_P1;PMS_P2;Temp;Humidity;BMP_temperature;BMP_pressure;BME280_temperature;BME280_humidity;BME280_pressure;Samples;Min_cycle;Max_cycle;Signal;HPM_P1;HPM_P2
2023/09/21 00:01:03;;;;;;;;;;;20.70;45.40;;;20.04;46.06;100415.88;12142661;19;19923;-83
2023/09/21 00:05:06;;;;;;;;;;;20.60;45.30;;;19.97;46.17;100409.50;12143609;19;20287;-83
2023/09/21 00:09:08;;;;;;;;;;;20.60;45.40;;;19.99;46.14;100414.66;12141801;19;19923;-83
2023/09/21 00:13:12;;;;;;;;;;;20.60;45.40;;;19.94;46.39;100403.69;12141917;19;19930;-83
2023/09/21 00:17:13;;;;;;;;;;;20.60;45.40;;;19.89;46.49;100404.97;12142055;19;19919;-83
2023/09/21 00:21:15;;;;;;;;;;;20.50;45.30;;;19.86;46.59;100409.75;12139692;19;19930;-83
2023/09/21 00:25:17;;;;;;;;;;;20.50;45.40;;;19.68;46.33;100380.59;12141396;19;19922;-84
2023/09/21 00:29:19;;;;;;;;;;;20.40;45.40;;;19.71;46.37;100398.84;12135162;19;20918;-83
2023/09/21 00:33:21;;;;;;;;;;;20.40;45.40;;;19.62;46.19;100395.25;12137667;19;19946;-83
2023/09/21 00:37:23;;;;;;;;;;;20.30;45.40;;;19.61;46.62;100400.72;12137282;19;19926;-84
2023/09/21 00:41:25;;;;;;;;;;;20.20;45.40;;;19.51;46.23;100384.91;12136109;19;20279;-84
2023/09/21 00:45:29;;;;;;;;;;;20.10;45.40;;;19.49;46.40;100388.69;12138787;19;20664;-84
2023/09/21 00:49:31;;;;;;;;;;;20.10;45.40;;;19.36;46.38;100371.38;12137015;19;19942;-84
2023/09/21 00:53:33;;;;;;;;;;;20.00;45.50;;;19.39;46.57;100380.81;12134657;19;19926;-84
2023/09/21 00:57:36;;;;;;;;;;;20.00;45.50;;;19.27;46.40;100368.78;12139641;19;19990;-84
2023/09/21 01:01:38;;;;;;;;;;;20.00;45.50;;;18.93;46.63;100316.47;12136406;19;20437;-84
2023/09/21 01:05:45;;;;;;;;;;;19.90;45.60;;;19.33;46.61;100381.41;12137399;19;20746;-84
2023/09/21 01:09:48;;;;;;;;;;;20.00;45.70;;;19.30;46.76;100379.88;12134034;19;20120;-84
2023/09/21 01:13:49;;;;;;;;;;;19.90;45.70;;;19.27;46.78;100374.06;12135777;19;20356;-84
2023/09/21 01:17:51;;;;;;;;;;;19.90;45.70;;;19.22;46.84;100370.03;12137911;19;19934;-84
2023/09/21 01:21:52;;;;;;;;;;;19.80;45.70;;;19.14;46.72;100362.00;12133215;19;19944;-84
2023/09/21 01:25:54;;;;;;;;;;;19.80;45.70;;;19.10;46.70;100359.84;12137654;19;20032;-84
2023/09/21 01:29:56;;;;;;;;;;;19.70;45.70;;;18.96;46.83;100346.13;12134442;19;19922;-84
2023/09/21 01:34:03;;;;;;;;;;;19.70;45.70;;;19.02;46.77;100355.28;12134820;19;20669;-84
2023/09/21 01:38:07;;;;;;;;;;;19.70;45.70;;;18.95;47.00;100344.44;12140764;19;19930;-84
2023/09/21 01:42:08;;;;;;;;;;;19.60;45.70;;;18.97;46.96;100352.25;12148583;19;20334;-84
2023/09/21 01:46:10;;;;;;;;;;;19.60;45.80;;;18.83;47.12;100340.34;12146144;19;20263;-84
2023/09/21 01:50:15;;;;;;;;;;;19.60;45.80;;;18.88;47.01;100343.38;12139768;19;20208;-83
2023/09/21 01:54:17;;;;;;;;;;;19.60;45.80;;;18.84;46.90;100326.13;12147288;19;19923;-84
2023/09/21 01:58:23;;;;;;;;;;;19.50;45.90;;;18.81;47.05;100326.41;12147482;19;19931;-84
2023/09/21 02:02:26;;;;;;;;;;;19.50;45.90;;;18.71;47.14;100321.16;12146903;19;19922;-84
2023/09/21 02:06:28;;;;;;;;;;;19.40;45.90;;;18.73;46.94;100326.28;12150085;19;19915;-84
2023/09/21 02:10:29;;;;;;;;;;;19.40;46.30;;;18.70;46.98;100322.13;12142673;19;20215;-84
2023/09/21 02:14:31;;;;;;;;;;;19.40;45.90;;;18.72;47.31;100316.72;12141609;19;19956;-83
2023/09/21 02:18:34;;;;;;;;;;;19.40;45.90;;;18.67;47.00;100303.09;12144981;19;20199;-84
2023/09/21 02:22:35;;;;;;;;;;;19.30;46.00;;;18.55;46.94;100286.56;12146423;19;20493;-82
2023/09/21 02:26:37;;;;;;;;;;;19.40;46.00;;;18.65;47.21;100297.94;12146864;19;19918;-82
2023/09/21 02:30:47;;;;;;;;;;;19.30;46.00;;;18.61;47.29;100291.28;12143854;19;19930;-81
2023/09/21 02:34:50;;;;;;;;;;;19.40;46.00;;;18.53;47.42;100280.63;12142735;19;19930;-82
2023/09/21 02:38:51;;;;;;;;;;;19.30;46.00;;;18.58;47.41;100295.06;12146472;19;19922;-82
2023/09/21 02:42:54;;;;;;;;;;;19.30;46.00;;;18.60;47.10;100296.72;12147245;19;20357;-82
2023/09/21 02:46:55;;;;;;;;;;;19.30;46.10;;;18.57;47.21;100297.84;12146449;19;20672;-82
2023/09/21 02:50:58;;;;;;;;;;;19.20;46.20;;;18.42;47.26;100273.72;12141579;19;20756;-82
2023/09/21 02:55:01;;;;;;;;;;;19.20;46.10;;;18.39;47.34;100271.34;12142481;19;20460;-82
2023/09/21 02:59:03;;;;;;;;;;;19.20;46.50;;;18.42;47.20;100279.00;12145381;19;20267;-81
2023/09/21 03:03:12;;;;;;;;;;;19.10;46.10;;;18.35;47.27;100277.91;12144055;19;20347;-82
2023/09/21 03:07:14;;;;;;;;;;;19.00;46.10;;;18.34;47.50;100282.38;12147854;19;20001;-82
2023/09/21 03:11:15;;;;;;;;;;;19.00;46.20;;;18.20;47.47;100261.69;12142381;19;20256;-82
2023/09/21 03:15:19;;;;;;;;;;;19.00;46.20;;;18.14;47.27;100264.91;12147122;19;19918;-82
2023/09/21 03:19:24;;;;;;;;;;;18.90;46.20;;;18.05;47.36;100250.75;12141917;19;20352;-82
2023/09/21 03:23:27;;;;;;;;;;;18.80;46.10;;;18.10;47.53;100269.66;12145996;19;19919;-81
2023/09/21 03:27:30;;;;;;;;;;;18.80;46.10;;;18.06;47.26;100267.44;12145257;19;19938;-82
2023/09/21 03:31:32;;;;;;;;;;;18.70;46.20;;;17.97;47.22;100252.47;12142978;19;20268;-82
2023/09/21 03:35:34;;;;;;;;;;;18.70;46.30;;;17.99;47.32;100256.63;12144662;19;19923;-82
2023/09/21 03:39:35;;;;;;;;;;;18.70;46.20;;;17.95;47.44;100254.41;12141870;19;19930;-82
2023/09/21 03:43:37;;;;;;;;;;;18.60;46.20;;;17.88;47.65;100235.66;12143029;19;20203;-82
2023/09/21 03:47:40;;;;;;;;;;;18.60;46.30;;;17.95;47.49;100243.84;12142658;19;19923;-82
2023/09/21 03:51:42;;;;;;;;;;;18.60;46.30;;;17.40;47.48;100165.31;12139261;19;20654;-82
2023/09/21 03:55:46;;;;;;;;;;;18.60;46.30;;;17.87;47.73;100242.75;12143568;19;19918;-82
2023/09/21 03:59:47;;;;;;;;;;;18.50;46.30;;;17.81;47.56;100229.28;12140632;19;20359;-82
2023/09/21 04:03:53;;;;;;;;;;;18.50;46.40;;;17.75;47.79;100229.84;12141942;19;19933;-82
2023/09/21 04:07:57;;;;;;;;;;;18.50;46.30;;;17.76;47.82;100224.41;12143069;19;19915;-82
2023/09/21 04:11:58;;;;;;;;;;;18.50;46.40;;;17.73;47.46;100223.84;12138776;19;20012;-82
2023/09/21 04:16:04;;;;;;;;;;;18.40;46.30;;;17.63;47.71;100210.66;12137601;19;20367;-82
2023/09/21 04:20:15;;;;;;;;;;;18.40;46.30;;;17.60;47.58;100214.44;12136710;19;19926;-82
2023/09/21 04:24:17;;;;;;;;;;;18.40;46.40;;;17.66;47.65;100224.44;12142064;19;20180;-82
2023/09/21 04:28:19;;;;;;;;;;;18.30;46.30;;;17.63;47.59;100216.81;12140045;19;20938;-83
2023/09/21 04:32:21;;;;;;;;;;;18.30;46.40;;;17.55;48.00;100208.78;12135919;19;19918;-83
2023/09/21 04:36:24;;;;;;;;;;;18.30;46.40;;;17.51;47.95;100203.91;12142338;19;20359;-83
2023/09/21 04:40:26;;;;;;;;;;;18.30;46.50;;;17.54;47.82;100212.38;12136476;19;20212;-83
2023/09/21 04:44:30;;;;;;;;;;;18.30;46.50;;;17.47;47.93;100205.97;12138628;19;19930;-83
2023/09/21 04:48:33;;;;;;;;;;;18.20;46.40;;;17.43;48.02;100202.78;12140993;19;20255;-83
2023/09/21 04:52:35;;;;;;;;;;;18.20;46.40;;;17.39;47.74;100203.22;12136268;19;19941;-83
2023/09/21 04:56:37;;;;;;;;;;;18.20;46.50;;;17.38;48.11;100206.84;12140372;19;20476;-82
2023/09/21 05:00:39;;;;;;;;;;;18.20;46.50;;;17.38;47.88;100204.19;12138044;19;20336;-82
2023/09/21 05:04:41;;;;;;;;;;;18.10;46.60;;;17.30;48.05;100209.34;12142052;19;19923;-82
2023/09/21 05:08:43;;;;;;;;;;;18.10;46.80;;;17.25;47.97;100202.72;12140874;19;19919;-83
2023/09/21 05:12:48;;;;;;;;;;;18.00;46.50;;;17.31;48.10;100211.00;12146676;19;20697;-83
2023/09/21 05:16:50;;;;;;;;;;;18.10;46.60;;;17.23;47.90;100194.09;12157346;19;20776;-84
2023/09/21 05:20:52;;;;;;;;;;;18.10;46.60;;;17.25;48.02;100205.34;12158086;19;19935;-83
2023/09/21 05:24:54;;;;;;;;;;;18.00;46.60;;;17.23;48.20;100196.72;12156469;19;20187;-83
2023/09/21 05:28:56;;;;;;;;;;;18.00;46.60;;;17.20;48.10;100202.28;12140167;19;19927;-85
2023/09/21 05:32:57;;;;;;;;;;;18.00;46.70;;;17.14;48.03;100180.88;12144712;19;19922;-82
2023/09/21 05:36:59;;;;;;;;;;;18.00;46.70;;;17.19;48.09;100192.69;12149389;19;20695;-83
2023/09/21 05:41:04;;;;;;;;;;;18.00;46.70;;;17.15;48.02;100187.84;12145455;19;19918;-83
2023/09/21 05:45:06;;;;;;;;;;;18.00;46.70;;;17.27;48.46;100207.81;12147839;19;19930;-82
2023/09/21 05:49:09;;;;;;;;;;;18.00;46.70;;;17.09;48.29;100178.66;12151921;19;19991;-82
2023/09/21 05:53:11;;;;;;;;;;;18.00;46.80;;;17.16;48.29;100182.41;12149352;19;20542;-82
2023/09/21 05:57:12;;;;;;;;;;;18.10;46.90;;;17.28;48.22;100203.38;12153321;19;19922;-83
2023/09/21 06:01:14;;;;;;;;;;;18.00;46.90;;;17.21;48.30;100188.13;12147262;19;20002;-83
2023/09/21 06:05:18;;;;;;;;;;;18.00;46.90;;;17.24;48.59;100200.19;12150183;19;19946;-83
2023/09/21 06:09:20;;;;;;;;;;;18.10;47.00;;;17.30;48.46;100196.97;12147049;19;19947;-83
2023/09/21 06:13:23;;;;;;;;;;;18.10;47.00;;;17.19;48.21;100179.50;12146720;19;19972;-83
2023/09/21 06:17:25;;;;;;;;;;;18.10;47.20;;;17.25;48.55;100186.88;12152964;19;20475;-83
2023/09/21 06:21:27;;;;;;;;;;;18.10;47.10;;;17.29;48.54;100199.78;12147692;19;20732;-82
2023/09/21 06:25:28;;;;;;;;;;;18.10;47.20;;;17.23;48.45;100180.91;12146383;19;20201;-82
2023/09/21 06:29:30;;;;;;;;;;;18.00;47.20;;;17.31;48.77;100201.31;12148736;19;19927;-82
2023/09/21 06:33:32;;;;;;;;;;;18.10;47.20;;;17.33;48.75;100194.06;12146228;19;20196;-83
2023/09/21 06:37:34;;;;;;;;;;;18.10;47.40;;;17.31;48.80;100179.34;12152537;19;19927;-82
2023/09/21 06:41:37;;;;;;;;;;;18.20;47.60;;;17.36;48.86;100185.88;12149766;19;19943;-83
2023/09/21 06:45:39;;;;;;;;;;;18.20;47.50;;;17.39;48.91;100174.19;12146747;19;20470;-82
2023/09/21 06:49:43;;;;;;;;;;;18.30;47.70;;;17.52;49.06;100187.91;12144969;19;19926;-82
2023/09/21 06:53:45;;;;;;;;;;;18.40;47.80;;;17.58;49.04;100176.78;12148437;19;19923;-82
2023/09/21 06:57:46;;;;;;;;;;;18.40;48.00;;;17.53;48.92;100155.25;12151124;19;19935;-82
2023/09/21 07:01:48;;;;;;;;;;;18.50;48.30;;;17.67;48.99;100170.63;12145691;19;20030;-83
2023/09/21 07:05:49;;;;;;;;;;;18.50;48.20;;;17.80;49.15;100170.34;12150033;19;19919;-82
2023/09/21 07:09:51;;;;;;;;;;;18.70;48.60;;;17.90;49.05;100170.28;12145531;19;19922;-82
2023/09/21 07:13:52;;;;;;;;;;;18.80;48.90;;;17.99;48.98;100164.16;12144507;19;19915;-81
2023/09/21 07:17:55;;;;;;;;;;;18.90;49.00;;;18.19;49.04;100171.97;12150057;19;20360;-83
2023/09/21 07:21:58;;;;;;;;;;;19.00;49.10;;;18.28;49.39;100171.94;12141412;19;19922;-82
2023/09/21 07:26:00;;;;;;;;;;;19.20;48.90;;;18.45;49.45;100178.22;12144802;19;19925;-83
2023/09/21 07:30:03;;;;;;;;;;;19.30;49.10;;;18.58;49.53;100169.94;12142531;19;19919;-83
2023/09/21 07:34:06;;;;;;;;;;;19.50;49.50;;;18.73;49.55;100170.22;12142660;19;19923;-86
2023/09/21 07:38:08;;;;;;;;;;;19.70;49.40;;;18.84;49.34;100154.16;12140718;19;20172;-85
2023/09/21 07:42:10;;;;;;;;;;;19.90;49.50;;;19.10;49.50;100167.44;12140916;19;19914;-85
2023/09/21 07:46:12;;;;;;;;;;;20.20;49.90;;;19.28;49.59;100155.97;12144533;19;19919;-86
2023/09/21 07:50:13;;;;;;;;;;;20.30;49.50;;;19.45;49.40;100148.00;12140239;19;20183;-85
2023/09/21 07:54:16;;;;;;;;;;;20.40;49.50;;;19.65;49.74;100153.06;12138165;19;20448;-83
2023/09/21 07:58:17;;;;;;;;;;;20.70;49.50;;;19.87;49.87;100149.91;12137988;19;20264;-82
2023/09/21 08:02:20;;;;;;;;;;;20.90;50.40;;;20.07;49.57;100139.03;12134210;19;20248;-84
2023/09/21 08:06:22;;;;;;;;;;;21.10;50.10;;;20.32;49.73;100134.63;12135859;19;19938;-83
2023/09/21 08:10:24;;;;;;;;;;;21.40;49.70;;;20.58;50.01;100133.69;12129522;19;19926;-82
2023/09/21 08:14:25;;;;;;;;;;;21.70;49.70;;;20.87;50.28;100136.69;12133203;19;19919;-83
2023/09/21 08:18:27;;;;;;;;;;;21.90;49.90;;;21.16;50.12;100138.03;12127430;19;20025;-81
2023/09/21 08:22:29;;;;;;;;;;;22.30;49.90;;;21.35;50.13;100118.22;12122676;19;19959;-81
2023/09/21 08:26:32;;;;;;;;;;;22.60;49.90;;;21.70;50.26;100126.81;12125712;19;19927;-82
2023/09/21 08:30:33;;;;;;;;;;;22.90;50.30;;;21.97;49.83;100130.84;12124326;19;19919;-80
2023/09/21 08:34:35;;;;;;;;;;;23.10;49.30;;;22.23;49.94;100127.94;12122540;19;19998;-80
2023/09/21 08:38:38;;;;;;;;;;;23.40;49.30;;;22.43;50.39;100129.09;12121014;19;19926;-80
2023/09/21 08:42:41;;;;;;;;;;;23.60;49.10;;;22.70;50.08;100132.25;12123627;19;19930;-80
2023/09/21 08:46:45;;;;;;;;;;;23.90;49.50;;;22.84;50.35;100120.81;12124793;19;19914;-80
2023/09/21 08:50:53;;;;;;;;;;;24.10;48.70;;;23.15;50.00;100122.59;12131316;19;19927;-82
2023/09/21 08:54:56;;;;;;;;;;;24.40;48.50;;;23.36;50.01;100122.69;12127188;19;19919;-80
2023/09/21 08:59:00;;;;;;;;;;;24.70;48.50;;;23.60;50.35;100128.75;12117828;19;20024;-81
2023/09/21 09:03:02;;;;;;;;;;;24.80;48.30;;;23.76;49.88;100123.28;12130255;19;20237;-81
2023/09/21 09:07:04;;;;;;;;;;;25.00;48.00;;;24.00;50.13;100129.31;12126434;19;19926;-81
2023/09/21 09:11:06;;;;;;;;;;;25.20;48.10;;;24.18;49.99;100121.72;12127640;19;19918;-81
2023/09/21 09:15:09;;;;;;;;;;;25.40;48.10;;;24.38;50.15;100129.09;12123080;19;19926;-80
2023/09/21 09:19:11;;;;;;;;;;;25.60;48.10;;;24.57;49.91;100117.81;12124352;19;19931;-80
2023/09/21 09:23:16;;;;;;;;;;;25.80;47.90;;;24.84;49.77;100123.41;12125568;19;19940;-81
2023/09/21 09:27:17;;;;;;;;;;;26.00;47.80;;;24.95;50.01;100112.19;12124918;19;20279;-80
2023/09/21 09:31:19;;;;;;;;;;;26.20;47.50;;;25.17;50.01;100110.34;12124253;19;20030;-81
2023/09/21 09:35:21;;;;;;;;;;;26.40;47.80;;;25.37;50.03;100107.81;12120969;19;19945;-81
2023/09/21 09:39:23;;;;;;;;;;;26.60;47.50;;;25.57;49.79;100098.06;12124050;19;19934;-82
2023/09/21 09:43:27;;;;;;;;;;;26.80;47.50;;;25.73;49.67;100090.69;12128236;19;19961;-84
2023/09/21 09:47:29;;;;;;;;;;;27.00;47.10;;;25.95;49.66;100088.75;12133316;19;19939;-82
2023/09/21 09:51:46;;;;;;;;;;;27.20;46.40;;;26.07;49.08;100079.13;12127172;19;19927;-81
2023/09/21 09:55:48;;;;;;;;;;;27.30;45.60;;;26.23;49.19;100080.59;12135762;19;19914;-81
2023/09/21 09:59:50;;;;;;;;;;;27.40;46.00;;;26.38;49.36;100078.56;12126850;19;20333;-82
2023/09/21 10:03:54;;;;;;;;;;;27.60;46.40;;;26.52;49.13;100075.91;12134427;19;20709;-83
2023/09/21 10:08:00;;;;;;;;;;;27.70;46.30;;;26.69;48.87;100074.50;12134037;19;19927;-82
2023/09/21 10:12:05;;;;;;;;;;;27.80;45.40;;;26.87;48.83;100071.19;12134417;19;19914;-81
2023/09/21 10:16:09;;;;;;;;;;;28.00;46.10;;;27.02;48.88;100063.75;12127940;19;19929;-83
2023/09/21 10:20:15;;;;;;;;;;;28.20;45.30;;;27.18;48.70;100054.47;12130185;19;19927;-81
2023/09/21 10:24:18;;;;;;;;;;;28.30;45.40;;;27.31;48.62;100046.41;12131638;19;20168;-81
2023/09/21 10:28:29;;;;;;;;;;;28.40;44.40;;;27.48;48.63;100043.25;12125368;19;19926;-81
2023/09/21 10:32:41;;;;;;;;;;;28.50;45.10;;;27.57;48.00;100041.94;12129363;19;20026;-81
2023/09/21 10:37:10;;;;;;;;;;;28.70;45.40;;;27.69;48.21;100020.66;12123842;19;19923;-81
2023/09/21 10:41:29;;;;;;;;;;;28.80;45.00;;;27.90;48.09;100027.59;12101651;19;19919;-81
2023/09/21 10:45:55;;;;;;;;;;;29.00;45.80;;;28.01;47.93;100024.22;12111291;19;19930;-81
2023/09/21 10:50:14;;;;;;;;;;;29.10;45.20;;;28.21;47.98;100026.78;12118184;19;20882;-81
2023/09/21 10:54:17;;;;;;;;;;;29.30;45.70;;;28.33;48.20;100010.78;12104943;19;20327;-82
2023/09/21 10:58:19;;;;;;;;;;;29.50;45.30;;;28.47;48.25;100004.28;12105942;19;19976;-83
2023/09/21 11:02:21;;;;;;;;;;;29.60;43.10;;;28.63;47.46;100001.03;12114331;19;19923;-82
2023/09/21 11:06:23;;;;;;;;;;;29.70;42.90;;;28.72;47.56;99998.88;12106119;19;19937;-82
2023/09/21 11:10:24;;;;;;;;;;;29.80;41.00;;;28.85;47.11;100014.88;12105265;19;19919;-81
2023/09/21 11:14:26;;;;;;;;;;;29.80;42.90;;;28.89;46.93;99997.28;12118317;19;19926;-82
2023/09/21 11:18:29;;;;;;;;;;;29.90;40.50;;;28.93;47.17;99992.28;12126754;19;20175;-82
2023/09/21 11:22:33;;;;;;;;;;;29.90;41.10;;;29.01;46.54;99970.47;12124939;19;20212;-82
2023/09/21 11:26:35;;;;;;;;;;;29.90;43.00;;;29.09;46.65;99980.94;12124965;19;20681;-82
2023/09/21 11:30:37;;;;;;;;;;;30.00;43.30;;;29.18;46.40;99983.34;12120974;19;19934;-82
2023/09/21 11:34:39;;;;;;;;;;;30.10;43.00;;;29.24;45.97;99971.66;12118949;19;19922;-81
2023/09/21 11:38:41;;;;;;;;;;;30.20;41.80;;;29.32;46.31;99955.22;12123208;19;20448;-81
2023/09/21 11:42:43;;;;;;;;;;;30.20;40.50;;;29.39;45.65;99961.34;12120203;19;20935;-82
2023/09/21 11:46:44;;;;;;;;;;;30.30;40.80;;;29.43;45.78;99949.06;12119541;19;19927;-83
2023/09/21 11:50:48;;;;;;;;;;;30.40;40.40;;;29.48;45.67;99943.00;12120537;19;19927;-82
2023/09/21 11:54:49;;;;;;;;;;;30.50;42.40;;;29.56;45.50;99942.69;12120897;19;20476;-82
2023/09/21 11:58:53;;;;;;;;;;;30.50;38.70;;;29.69;45.52;99947.09;12121293;19;19923;-83
2023/09/21 12:02:56;;;;;;;;;;;30.60;42.60;;;29.76;45.68;99940.56;12120361;19;20271;-80
2023/09/21 12:06:59;;;;;;;;;;;30.60;41.20;;;29.82;45.49;99935.31;12115108;19;20477;-81
2023/09/21 12:11:00;;;;;;;;;;;30.80;41.60;;;29.89;45.35;99927.94;12116717;19;19926;-81
2023/09/21 12:15:04;;;;;;;;;;;30.80;42.20;;;30.00;45.10;99929.84;12119435;19;20185;-81
2023/09/21 12:19:07;;;;;;;;;;;30.90;38.10;;;30.10;44.94;99929.28;12119820;19;20808;-82
2023/09/21 12:23:09;;;;;;;;;;;31.00;37.70;;;30.13;44.79;99910.75;12121788;19;20033;-81
2023/09/21 12:27:11;;;;;;;;;;;31.00;38.60;;;30.21;44.76;99914.97;12124655;19;19938;-81
2023/09/21 12:31:14;;;;;;;;;;;31.10;37.70;;;30.29;44.77;99917.34;12112321;19;20279;-81
2023/09/21 12:35:17;;;;;;;;;;;31.20;41.20;;;30.31;44.53;99899.09;12118491;19;20438;-81
2023/09/21 12:39:19;;;;;;;;;;;31.20;41.30;;;30.40;44.29;99894.97;12113596;19;19926;-81
2023/09/21 12:43:20;;;;;;;;;;;31.20;41.30;;;30.48;44.12;99890.28;12117910;19;19911;-81
2023/09/21 12:47:21;;;;;;;;;;;31.30;40.70;;;30.51;44.35;99870.94;12118307;19;20485;-81
2023/09/21 12:51:24;;;;;;;;;;;31.40;41.10;;;30.54;43.96;99865.09;12113109;19;19952;-82
2023/09/21 12:55:25;;;;;;;;;;;31.40;41.70;;;30.62;43.97;99867.41;12115829;19;20205;-82
2023/09/21 12:59:28;;;;;;;;;;;31.50;41.70;;;30.67;43.74;99864.00;12114944;19;19941;-82
2023/09/21 13:03:30;;;;;;;;;;;31.50;41.80;;;30.70;44.06;99858.97;12119731;19;19994;-81
2023/09/21 13:07:32;;;;;;;;;;;31.50;41.90;;;30.74;44.04;99849.34;12115049;19;20018;-81
2023/09/21 13:11:34;;;;;;;;;;;31.50;38.60;;;30.77;43.90;99843.47;12113081;19;19922;-81
2023/09/21 13:15:36;;;;;;;;;;;31.60;41.60;;;30.78;43.75;99822.72;12113270;19;20268;-81
2023/09/21 13:19:37;;;;;;;;;;;31.60;41.90;;;30.81;43.73;99830.34;12114855;19;19919;-81
2023/09/21 13:23:40;;;;;;;;;;;31.60;42.30;;;30.83;43.44;99826.34;12114663;19;19919;-81
2023/09/21 13:27:41;;;;;;;;;;;31.70;40.40;;;30.82;43.25;99813.13;12118349;19;19934;-82
2023/09/21 13:31:42;;;;;;;;;;;31.60;40.90;;;30.88;43.38;99824.84;12110938;19;20500;-81
2023/09/21 13:35:44;;;;;;;;;;;31.70;41.70;;;30.89;43.24;99815.69;12124673;19;20002;-81
2023/09/21 13:39:46;;;;;;;;;;;31.70;40.70;;;30.86;43.36;99815.09;12125327;19;19927;-81
2023/09/21 13:43:47;;;;;;;;;;;31.70;41.20;;;30.95;43.17;99807.47;12124214;19;19946;-82
2023/09/21 13:47:49;;;;;;;;;;;31.70;41.30;;;30.96;42.82;99816.38;12127177;19;19929;-82
2023/09/21 13:51:51;;;;;;;;;;;31.70;40.60;;;30.96;42.94;99808.28;12130088;19;19919;-81
2023/09/21 13:55:52;;;;;;;;;;;31.70;41.40;;;31.00;43.11;99798.63;12125824;19;20260;-81
2023/09/21 13:59:53;;;;;;;;;;;31.70;39.50;;;31.03;42.67;99803.56;12126060;19;19927;-81
2023/09/21 14:03:57;;;;;;;;;;;31.70;41.60;;;31.02;42.92;99791.94;12129698;19;19986;-82
2023/09/21 14:07:58;;;;;;;;;;;31.70;41.60;;;31.05;42.54;99801.41;12121539;19;20558;-82
2023/09/21 14:12:01;;;;;;;;;;;31.70;41.70;;;31.05;42.63;99787.94;12107657;19;19923;-82
2023/09/21 14:16:03;;;;;;;;;;;31.70;40.30;;;31.02;42.46;99780.31;12109288;19;19922;-82
2023/09/21 14:20:05;;;;;;;;;;;31.80;41.20;;;31.04;42.38;99786.31;12107620;19;20787;-82
2023/09/21 14:24:07;;;;;;;;;;;31.70;41.40;;;31.06;42.41;99779.59;12106563;19;19932;-82
2023/09/21 14:28:09;;;;;;;;;;;31.70;41.10;;;31.04;42.61;99780.91;12108355;19;20331;-82
2023/09/21 14:32:10;;;;;;;;;;;31.70;41.40;;;31.06;42.28;99776.09;12108034;19;20689;-81
2023/09/21 14:36:12;;;;;;;;;;;31.70;41.60;;;31.01;42.40;99768.72;12106853;19;19942;-81
2023/09/21 14:40:14;;;;;;;;;;;31.70;41.50;;;31.03;42.10;99771.19;12102336;19;20282;-81
2023/09/21 14:44:16;;;;;;;;;;;31.70;41.60;;;31.01;42.38;99763.34;12108378;19;19930;-81
2023/09/21 14:48:18;;;;;;;;;;;31.60;39.70;;;30.96;42.00;99754.34;12102909;19;19922;-82
2023/09/21 14:52:20;;;;;;;;;;;31.60;40.90;;;30.99;42.00;99753.84;12107360;19;20892;-81
2023/09/21 14:56:21;;;;;;;;;;;31.60;41.40;;;30.94;42.16;99741.09;12106794;19;20728;-82
2023/09/21 15:00:23;;;;;;;;;;;31.60;41.40;;;30.99;42.20;99760.06;12104058;19;20030;-82
2023/09/21 15:04:24;;;;;;;;;;;31.60;41.50;;;31.01;42.31;99752.53;12103555;19;19926;-82
2023/09/21 15:08:26;;;;;;;;;;;31.60;41.50;;;31.01;42.22;99747.16;12111309;19;20264;-82
2023/09/21 15:12:27;;;;;;;;;;;31.60;41.50;;;30.96;42.00;99738.16;12126288;19;19923;-82
2023/09/21 15:16:29;;;;;;;;;;;31.50;41.60;;;30.99;42.15;99738.47;12123584;19;20376;-82
2023/09/21 15:20:31;;;;;;;;;;;31.50;41.60;;;30.94;41.84;99726.78;12109072;19;19929;-82
2023/09/21 15:24:32;;;;;;;;;;;31.60;41.70;;;30.95;41.91;99720.34;12106554;19;19939;-82
2023/09/21 15:28:34;;;;;;;;;;;31.60;41.60;;;30.97;41.74;99715.50;12106840;19;20017;-82
2023/09/21 15:32:35;;;;;;;;;;;31.50;40.60;;;30.89;41.73;99702.44;12108165;19;20262;-81
2023/09/21 15:36:40;;;;;;;;;;;31.50;41.00;;;30.91;41.83;99706.53;12106776;19;19960;-82
2023/09/21 15:40:45;;;;;;;;;;;31.50;41.60;;;30.90;41.94;99698.69;12101124;19;19922;-81
2023/09/21 15:44:47;;;;;;;;;;;31.50;41.40;;;30.90;41.95;99696.00;12100074;19;19926;-82
2023/09/21 15:48:48;;;;;;;;;;;31.40;41.40;;;30.86;41.97;99693.75;12107072;19;19953;-82
2023/09/21 15:52:50;;;;;;;;;;;31.40;41.10;;;30.83;41.89;99685.34;12108151;19;19954;-82
2023/09/21 15:56:52;;;;;;;;;;;31.40;41.20;;;30.74;41.79;99679.50;12111014;19;20264;-82
2023/09/21 16:00:54;;;;;;;;;;;31.40;41.00;;;30.71;41.58;99681.88;12110038;19;20699;-82
2023/09/21 16:04:55;;;;;;;;;;;31.20;41.20;;;30.64;41.70;99677.44;12111563;19;19934;-82
2023/09/21 16:08:57;;;;;;;;;;;31.10;41.30;;;30.56;41.60;99674.34;12111668;19;19929;-82
2023/09/21 16:12:59;;;;;;;;;;;31.10;41.40;;;30.53;41.47;99677.50;12113155;19;20283;-82
2023/09/21 16:17:02;;;;;;;;;;;31.00;41.30;;;30.39;41.63;99652.75;12115420;19;20764;-82
2023/09/21 16:21:04;;;;;;;;;;;30.90;41.40;;;30.40;41.64;99668.66;12111743;19;19919;-82
2023/09/21 16:25:06;;;;;;;;;;;30.90;41.50;;;30.30;41.59;99656.88;12112468;19;21186;-82
2023/09/21 16:29:08;;;;;;;;;;;30.80;41.60;;;30.11;41.37;99645.44;12110389;19;20700;-82
2023/09/21 16:33:09;;;;;;;;;;;30.70;41.70;;;30.16;41.34;99662.53;12116944;19;19926;-82
2023/09/21 16:37:11;;;;;;;;;;;30.70;41.70;;;30.15;41.34;99668.16;12125937;19;19926;-82
2023/09/21 16:41:12;;;;;;;;;;;30.60;41.70;;;30.01;41.32;99662.22;12110978;19;20363;-81
2023/09/21 16:45:14;;;;;;;;;;;30.40;41.80;;;29.90;41.27;99657.69;12098864;19;19933;-82
2023/09/21 16:49:15;;;;;;;;;;;30.30;41.80;;;29.85;41.27;99662.97;12113645;19;20684;-81
2023/09/21 16:53:17;;;;;;;;;;;30.20;41.80;;;29.67;41.20;99651.28;12114175;19;20537;-82
2023/09/21 16:57:18;;;;;;;;;;;30.10;41.80;;;29.52;41.23;99654.44;12117167;19;19927;-82
2023/09/21 17:01:20;;;;;;;;;;;29.90;41.70;;;29.33;41.62;99643.00;12113381;19;20329;-82
2023/09/21 17:05:22;;;;;;;;;;;29.70;41.80;;;29.24;41.09;99647.06;12112316;19;19919;-82
2023/09/21 17:09:24;;;;;;;;;;;29.60;41.80;;;29.09;41.29;99644.84;12117855;19;19923;-82
2023/09/21 17:13:26;;;;;;;;;;;29.40;41.80;;;28.94;41.33;99647.13;12121343;19;20452;-82
2023/09/21 17:17:27;;;;;;;;;;;29.30;41.90;;;28.80;41.54;99649.22;12131758;19;19950;-81
2023/09/21 17:21:30;;;;;;;;;;;29.10;41.80;;;28.71;41.54;99657.84;12127937;19;20696;-81
2023/09/21 17:25:32;;;;;;;;;;;29.00;42.00;;;28.58;41.45;99658.88;12130741;19;19926;-82
2023/09/21 17:29:33;;;;;;;;;;;28.80;42.00;;;28.47;41.44;99660.47;12127706;19;19918;-83
2023/09/21 17:33:35;;;;;;;;;;;28.70;42.00;;;28.40;41.67;99670.44;12122781;19;20743;-82
2023/09/21 17:37:37;;;;;;;;;;;28.60;42.00;;;28.30;41.63;99665.63;12126406;19;20206;-81
2023/09/21 17:41:38;;;;;;;;;;;28.50;42.10;;;28.14;41.47;99653.66;12127416;19;19992;-82
2023/09/21 17:45:40;;;;;;;;;;;28.40;42.10;;;27.99;41.48;99650.53;12116719;19;20611;-82
2023/09/21 17:49:42;;;;;;;;;;;28.30;42.10;;;27.94;41.36;99645.81;12134149;19;20539;-84
2023/09/21 17:53:43;;;;;;;;;;;28.10;42.20;;;27.78;41.68;99643.72;12132964;19;20296;-83
2023/09/21 17:57:44;;;;;;;;;;;28.00;42.20;;;27.69;41.64;99645.06;12141405;19;19939;-83
2023/09/21 18:01:46;;;;;;;;;;;27.90;42.30;;;27.50;41.49;99634.31;12133664;19;20268;-82
2023/09/21 18:05:48;;;;;;;;;;;27.80;42.30;;;27.48;41.48;99643.63;12134886;19;19956;-83
2023/09/21 18:09:49;;;;;;;;;;;27.70;42.30;;;27.38;41.75;99648.66;12136952;19;20925;-83
2023/09/21 18:13:51;;;;;;;;;;;27.60;42.30;;;27.25;41.74;99639.72;12133132;19;20288;-83